Time;durP1;ratioP1;P1;durP2;ratioP2;P2;SDS_P1;SDS_P2;PMS_P1;PMS_P2;Temp;Humidity;BMP_temperature;BMP_pressure;BME280_temperature;BME280_humidity;BME280_pressure;Samples;Min_cycle;Max_cycle;Signal;HPM_P1;HPM_P2
2023/07/26 00:02:10;;;;;;;8.20;2.90;;;15.30;99.90;;;;;;5051786;28;20049;-64
2023/07/26 00:04:36;;;;;;;7.78;2.90;;;15.30;99.90;;;;;;5018849;28;20063;-64
2023/07/26 00:07:03;;;;;;;7.28;2.75;;;15.30;99.90;;;;;;5052179;28;20041;-64
2023/07/26 00:09:29;;;;;;;8.27;3.55;;;15.30;99.90;;;;;;5052872;28;20045;-64
2023/07/26 00:11:57;;;;;;;13.90;3.97;;;15.30;99.90;;;;;;5034673;28;20045;-65
2023/07/26 00:14:23;;;;;;;6.40;3.15;;;15.30;99.90;;;;;;5052678;28;20099;-64
2023/07/26 00:16:50;;;;;;;5.63;2.80;;;15.30;99.90;;;;;;5052630;28;20071;-65
2023/07/26 00:19:19;;;;;;;4.53;2.55;;;15.30;99.90;;;;;;5035274;28;20107;-64
2023/07/26 00:21:46;;;;;;;4.32;2.58;;;15.30;99.90;;;;;;5051665;28;20045;-64
2023/07/26 00:24:12;;;;;;;5.70;2.67;;;15.20;99.90;;;;;;5052644;28;20052;-64
2023/07/26 00:26:41;;;;;;;8.18;3.00;;;15.20;99.90;;;;;;5034289;28;20056;-65
2023/07/26 00:29:07;;;;;;;6.80;2.70;;;15.20;99.90;;;;;;5034471;28;20103;-63
2023/07/26 00:31:33;;;;;;;9.27;2.60;;;15.20;99.90;;;;;;5051254;28;20100;-63
2023/07/26 00:34:00;;;;;;;6.20;2.72;;;15.30;99.90;;;;;;5032345;28;20111;-64
2023/07/26 00:36:26;;;;;;;10.77;2.97;;;15.30;99.90;;;;;;5031575;28;20065;-65
2023/07/26 00:38:53;;;;;;;5.47;2.75;;;15.30;99.90;;;;;;5015051;28;20073;-66
2023/07/26 00:41:19;;;;;;;4.07;2.25;;;15.30;99.90;;;;;;5032612;28;20046;-64
2023/07/26 00:43:45;;;;;;;5.35;2.50;;;15.30;99.90;;;;;;5052026;28;20051;-64
2023/07/26 00:46:13;;;;;;;6.00;2.33;;;15.30;99.90;;;;;;5034366;28;20358;-65
2023/07/26 00:48:40;;;;;;;4.90;2.45;;;15.20;99.90;;;;;;5018174;28;20041;-65
2023/07/26 00:51:07;;;;;;;6.60;2.30;;;15.20;99.90;;;;;;5052077;28;20056;-64
2023/07/26 00:53:34;;;;;;;6.55;2.70;;;15.20;99.90;;;;;;5033594;28;20347;-65
2023/07/26 00:56:00;;;;;;;4.68;2.42;;;15.20;99.90;;;;;;5051947;28;20053;-64
2023/07/26 00:58:27;;;;;;;7.90;2.63;;;15.10;99.90;;;;;;5051967;28;20049;-65
2023/07/26 01:00:53;;;;;;;7.22;2.50;;;15.20;99.90;;;;;;5051868;28;20052;-66
2023/07/26 01:03:20;;;;;;;10.02;3.17;;;15.20;99.90;;;;;;5051367;28;20057;-63
2023/07/26 01:05:58;;;;;;;7.00;2.80;;;15.20;99.90;;;;;;5034007;28;20053;-66
2023/07/26 01:08:34;;;;;;;5.47;2.78;;;15.20;99.90;;;;;;5051931;28;20041;-66
2023/07/26 01:11:33;;;;;;;4.22;2.72;;;15.10;99.90;;;;;;5034068;28;20346;-64
2023/07/26 01:14:06;;;;;;;4.15;2.20;;;15.10;99.90;;;;;;5020330;28;20053;-64
2023/07/26 01:16:32;;;;;;;4.30;2.50;;;15.00;99.90;;;;;;5031498;28;20053;-64
2023/07/26 01:18:59;;;;;;;4.78;2.28;;;14.90;99.90;;;;;;5031501;28;20064;-64
2023/07/26 01:21:30;;;;;;;4.78;3.00;;;14.90;99.90;;;;;;5014179;28;20052;-65
2023/07/26 01:23:57;;;;;;;;;;;14.90;99.90;;;;;;5031985;28;20084;-64
2023/07/26 01:26:25;;;;;;;5.82;2.92;;;14.80;99.90;;;;;;5031325;28;19925;-65
2023/07/26 01:28:51;;;;;;;4.80;2.90;;;14.70;99.90;;;;;;5031780;28;20077;-66
2023/07/26 01:31:20;;;;;;;4.22;2.60;;;14.70;99.90;;;;;;5031472;28;20064;-64
2023/07/26 01:33:49;;;;;;;5.95;3.00;;;14.70;99.90;;;;;;5032921;28;20041;-66
2023/07/26 01:36:16;;;;;;;4.07;2.58;;;14.70;99.90;;;;;;5045890;28;20109;-65
2023/07/26 01:38:45;;;;;;;5.03;2.20;;;14.70;99.90;;;;;;5013982;28;20454;-64
2023/07/26 01:41:12;;;;;;;4.80;2.33;;;14.60;99.90;;;;;;5031641;28;20140;-64
2023/07/26 01:43:38;;;;;;;7.25;2.60;;;14.60;99.90;;;;;;5012547;28;20526;-63
2023/07/26 01:46:04;;;;;;;4.80;2.30;;;14.60;99.90;;;;;;4993735;28;20557;-64
2023/07/26 01:48:31;;;;;;;3.83;2.35;;;14.60;99.90;;;;;;4994158;28;20054;-65
2023/07/26 01:50:57;;;;;;;3.85;2.17;;;14.50;99.90;;;;;;4994199;28;20050;-65
2023/07/26 01:53:24;;;;;;;3.13;2.13;;;14.40;99.90;;;;;;5026681;28;20041;-65
2023/07/26 01:55:50;;;;;;;3.83;2.20;;;14.40;99.90;;;;;;5031002;28;20045;-66
2023/07/26 01:58:16;;;;;;;3.13;2.10;;;14.40;99.90;;;;;;5031305;28;20049;-64
2023/07/26 02:00:42;;;;;;;7.32;2.22;;;14.30;99.90;;;;;;5031456;28;20124;-64
2023/07/26 02:03:09;;;;;;;4.13;2.10;;;14.20;99.90;;;;;;5017385;28;20466;-64
2023/07/26 02:05:41;;;;;;;4.65;2.80;;;14.20;99.90;;;;;;5011385;28;20049;-65
2023/07/26 02:08:09;;;;;;;4.43;2.95;;;14.10;99.90;;;;;;4994058;28;20050;-65
2023/07/26 02:10:35;;;;;;;5.88;3.05;;;14.00;99.90;;;;;;5011463;28;20042;-64
2023/07/26 02:13:02;;;;;;;5.25;3.30;;;13.90;99.90;;;;;;5023485;28;20046;-65
2023/07/26 02:15:28;;;;;;;5.53;3.10;;;13.90;99.90;;;;;;5031197;28;20045;-64
2023/07/26 02:17:54;;;;;;;4.70;3.22;;;13.80;99.90;;;;;;5030522;28;20056;-66
2023/07/26 02:20:21;;;;;;;6.97;3.83;;;13.70;99.90;;;;;;5031303;28;20053;-64
2023/07/26 02:22:47;;;;;;;5.13;3.70;;;13.60;99.90;;;;;;5020758;28;20054;-66
2023/07/26 02:25:14;;;;;;;5.38;3.55;;;13.60;99.90;;;;;;5011643;28;20050;-66
2023/07/26 02:27:40;;;;;;;5.80;3.80;;;13.60;99.90;;;;;;5014436;28;20541;-64
2023/07/26 02:30:07;;;;;;;4.82;3.95;;;13.50;99.90;;;;;;4997864;28;20426;-65
2023/07/26 02:32:34;;;;;;;7.30;4.10;;;13.50;99.90;;;;;;5023160;28;20045;-64
2023/07/26 02:35:00;;;;;;;6.28;4.00;;;13.40;99.90;;;;;;5034628;28;20462;-64
2023/07/26 02:37:27;;;;;;;4.60;3.53;;;13.40;99.90;;;;;;5034029;28;20057;-64
2023/07/26 02:39:53;;;;;;;5.00;3.67;;;13.40;99.90;;;;;;5034671;28;20053;-65
2023/07/26 02:42:20;;;;;;;5.10;3.78;;;13.30;99.90;;;;;;5000397;28;20045;-64
2023/07/26 02:44:49;;;;;;;5.45;3.45;;;13.30;99.90;;;;;;5034614;28;20123;-65
2023/07/26 02:47:17;;;;;;;5.47;3.80;;;13.30;99.90;;;;;;5034216;28;20053;-64
2023/07/26 02:49:43;;;;;;;4.75;3.65;;;13.30;99.90;;;;;;5034655;28;20064;-64
2023/07/26 02:52:09;;;;;;;5.47;3.78;;;13.20;99.90;;;;;;5034114;28;20049;-66
2023/07/26 02:54:35;;;;;;;4.50;4.00;;;13.20;99.90;;;;;;5034358;28;20111;-66
2023/07/26 02:57:02;;;;;;;6.50;4.00;;;13.10;99.90;;;;;;5033818;28;20116;-64
2023/07/26 02:59:28;;;;;;;4.78;3.90;;;13.10;99.90;;;;;;5016967;28;20045;-64
2023/07/26 03:01:55;;;;;;;5.40;3.72;;;13.00;99.90;;;;;;5016488;28;20055;-63
2023/07/26 03:04:21;;;;;;;6.90;3.65;;;13.00;99.90;;;;;;5034086;28;20053;-65
2023/07/26 03:06:47;;;;;;;5.45;3.80;;;12.90;99.90;;;;;;5033828;28;20045;-65
2023/07/26 03:09:14;;;;;;;6.35;4.05;;;12.90;99.90;;;;;;5033953;28;20059;-64
2023/07/26 03:11:40;;;;;;;5.25;3.78;;;12.90;99.90;;;;;;5033592;28;20050;-64
2023/07/26 03:14:06;;;;;;;4.57;3.45;;;12.70;99.90;;;;;;5034040;28;20115;-63
2023/07/26 03:16:32;;;;;;;4.57;3.63;;;12.80;99.90;;;;;;5033486;28;20054;-65
2023/07/26 03:18:59;;;;;;;5.47;3.78;;;12.70;99.90;;;;;;5034042;28;20057;-63
2023/07/26 03:21:25;;;;;;;6.93;4.00;;;12.70;99.90;;;;;;5033851;28;20450;-65
2023/07/26 03:23:52;;;;;;;8.57;3.90;;;12.80;99.90;;;;;;5015816;28;20116;-65
2023/07/26 03:26:18;;;;;;;4.85;3.85;;;12.80;99.90;;;;;;5033587;28;20053;-64
2023/07/26 03:28:45;;;;;;;5.40;4.13;;;12.80;99.90;;;;;;5033658;28;20057;-64
2023/07/26 03:31:12;;;;;;;6.47;4.30;;;12.70;99.90;;;;;;5016091;28;20403;-64
2023/07/26 03:33:39;;;;;;;5.03;3.88;;;12.60;99.90;;;;;;5015573;28;20045;-66
2023/07/26 03:36:05;;;;;;;5.65;4.38;;;12.60;99.90;;;;;;5032147;28;20060;-64
2023/07/26 03:38:32;;;;;;;5.60;4.25;;;12.60;99.90;;;;;;5033603;28;20049;-64
2023/07/26 03:40:58;;;;;;;7.40;4.70;;;12.60;99.90;;;;;;5033351;28;20057;-64
2023/07/26 03:43:24;;;;;;;6.20;4.50;;;12.50;99.90;;;;;;5032450;28;20429;-65
2023/07/26 03:45:51;;;;;;;6.32;4.32;;;12.50;99.90;;;;;;5033346;28;20049;-66
2023/07/26 03:48:17;;;;;;;6.38;4.57;;;12.50;99.90;;;;;;5033825;28;20057;-65
2023/07/26 03:50:43;;;;;;;6.28;4.65;;;12.50;99.90;;;;;;5033308;28;20053;-63
2023/07/26 03:53:09;;;;;;;5.80;4.65;;;12.40;99.90;;;;;;5015884;28;20056;-66
2023/07/26 03:55:37;;;;;;;6.78;4.53;;;12.40;99.90;;;;;;5015161;28;20053;-65
2023/07/26 03:58:03;;;;;;;7.78;5.13;;;12.40;99.90;;;;;;5015433;28;20378;-64
2023/07/26 04:00:30;;;;;;;6.05;4.68;;;12.40;99.90;;;;;;5033360;28;20056;-65
2023/07/26 04:02:56;;;;;;;8.30;4.80;;;12.40;99.90;;;;;;5032019;28;20535;-64
2023/07/26 04:05:22;;;;;;;6.35;4.93;;;12.40;99.90;;;;;;5033052;28;20053;-66
2023/07/26 04:07:48;;;;;;;7.30;4.88;;;12.50;99.90;;;;;;5032856;28;20366;-64
2023/07/26 04:10:15;;;;;;;8.73;5.30;;;12.50;99.90;;;;;;5032959;28;20041;-63
2023/07/26 04:12:41;;;;;;;6.22;5.07;;;12.50;99.90;;;;;;5015095;28;20075;-66
2023/07/26 04:15:08;;;;;;;7.32;5.05;;;12.50;99.90;;;;;;5033027;28;20473;-64
2023/07/26 04:17:35;;;;;;;7.15;5.13;;;12.60;99.90;;;;;;5015236;28;20049;-64
2023/07/26 04:20:01;;;;;;;5.65;4.72;;;12.60;99.90;;;;;;5015428;28;20075;-65
2023/07/26 04:22:28;;;;;;;7.70;5.32;;;12.50;99.90;;;;;;5031947;28;20058;-64
2023/07/26 04:24:54;;;;;;;5.72;4.60;;;12.60;99.90;;;;;;5032841;28;20098;-64
2023/07/26 04:27:21;;;;;;;8.05;5.10;;;12.60;99.90;;;;;;5032566;28;20045;-65
2023/07/26 04:29:47;;;;;;;6.70;5.38;;;12.60;99.90;;;;;;5032977;28;20061;-64
2023/07/26 04:32:13;;;;;;;6.90;4.80;;;12.60;99.90;;;;;;5015028;28;20041;-64
2023/07/26 04:34:40;;;;;;;6.10;5.30;;;12.60;99.90;;;;;;5032540;28;20050;-64
2023/07/26 04:37:07;;;;;;;6.45;5.35;;;12.70;99.90;;;;;;5043005;28;20053;-63
2023/07/26 04:39:34;;;;;;;7.10;5.47;;;12.70;99.90;;;;;;5052136;28;20477;-64
2023/07/26 04:42:00;;;;;;;7.32;5.13;;;12.70;99.90;;;;;;5048803;28;20115;-63
2023/07/26 04:44:27;;;;;;;6.97;4.85;;;12.80;99.90;;;;;;5046789;28;20450;-65
2023/07/26 04:46:54;;;;;;;8.20;5.05;;;12.80;99.90;;;;;;5046284;28;20432;-64
2023/07/26 04:49:22;;;;;;;5.97;4.53;;;12.80;99.90;;;;;;5033097;28;20059;-64
2023/07/26 04:51:48;;;;;;;6.15;5.55;;;12.90;99.90;;;;;;5050898;28;20045;-63
2023/07/26 04:54:15;;;;;;;7.30;5.78;;;12.90;99.90;;;;;;5034092;28;20342;-64
2023/07/26 04:56:41;;;;;;;6.05;5.43;;;12.90;99.90;;;;;;5051342;28;20102;-64
2023/07/26 04:59:07;;;;;;;7.00;5.30;;;13.00;99.90;;;;;;5051605;28;20045;-63
2023/07/26 05:01:35;;;;;;;6.32;5.22;;;13.10;99.90;;;;;;5051041;28;20372;-64
2023/07/26 05:04:01;;;;;;;8.48;5.22;;;13.10;99.90;;;;;;5048303;28;20060;-65
2023/07/26 05:06:30;;;;;;;6.30;5.35;;;13.10;99.90;;;;;;5032619;28;20484;-64
2023/07/26 05:08:57;;;;;;;8.20;5.38;;;13.10;99.90;;;;;;5048876;28;20061;-64
2023/07/26 05:11:23;;;;;;;6.20;5.03;;;13.10;99.90;;;;;;5033601;28;20037;-64
2023/07/26 05:13:50;;;;;;;6.97;5.10;;;13.10;99.90;;;;;;5051205;28;20037;-64
2023/07/26 05:16:16;;;;;;;7.90;5.60;;;13.10;99.90;;;;;;5050713;28;20049;-64
2023/07/26 05:18:43;;;;;;;5.88;5.30;;;13.00;99.90;;;;;;5051831;28;20080;-64
2023/07/26 05:21:09;;;;;;;6.95;5.25;;;13.10;99.90;;;;;;5050258;28;20411;-66
2023/07/26 05:23:35;;;;;;;8.85;5.47;;;13.10;99.90;;;;;;5032319;28;20480;-64
2023/07/26 05:26:02;;;;;;;6.75;5.07;;;13.10;99.90;;;;;;5049969;28;20049;-65
2023/07/26 05:28:28;;;;;;;6.47;5.60;;;13.10;99.90;;;;;;5034090;28;20049;-64
2023/07/26 05:30:56;;;;;;;7.28;5.35;;;13.20;99.90;;;;;;5017203;28;20040;-65
2023/07/26 05:33:22;;;;;;;7.38;5.13;;;13.30;99.90;;;;;;5033749;28;20052;-68
2023/07/26 05:35:49;;;;;;;6.15;5.40;;;13.30;99.90;;;;;;5032431;28;20053;-64
2023/07/26 05:38:15;;;;;;;7.25;5.22;;;13.30;99.90;;;;;;5031661;28;20079;-65
2023/07/26 05:40:42;;;;;;;7.07;5.50;;;13.30;99.90;;;;;;5014434;28;20266;-64
2023/07/26 05:43:09;;;;;;;6.53;5.10;;;13.50;99.90;;;;;;5030012;28;20053;-66
2023/07/26 05:45:36;;;;;;;6.07;5.43;;;13.50;99.90;;;;;;5013312;28;20049;-65
2023/07/26 05:48:02;;;;;;;5.93;5.32;;;13.50;99.90;;;;;;5030843;28;20056;-65
2023/07/26 05:50:29;;;;;;;5.95;5.10;;;13.50;99.90;;;;;;5013093;28;20049;-64
2023/07/26 05:52:55;;;;;;;6.15;5.25;;;13.70;99.90;;;;;;5030740;28;20359;-66
2023/07/26 05:55:21;;;;;;;7.43;5.63;;;13.80;99.90;;;;;;5031335;28;20049;-64
2023/07/26 05:57:47;;;;;;;7.07;5.82;;;13.90;99.90;;;;;;5031629;28;20123;-64
2023/07/26 06:00:14;;;;;;;7.47;6.68;;;14.10;99.90;;;;;;5031902;28;20060;-65
2023/07/26 06:02:41;;;;;;;13.27;9.02;;;14.10;99.90;;;;;;5016826;28;20060;-65
2023/07/26 06:05:08;;;;;;;8.88;6.20;;;14.30;99.90;;;;;;5035205;28;20454;-65
2023/07/26 06:07:35;;;;;;;14.15;6.22;;;14.20;99.90;;;;;;5017272;28;20049;-65
2023/07/26 06:10:03;;;;;;;11.43;6.05;;;14.30;99.90;;;;;;5001044;28;20053;-64
2023/07/26 06:12:30;;;;;;;7.82;5.53;;;14.30;99.90;;;;;;5017494;28;20041;-66
2023/07/26 06:14:56;;;;;;;8.20;5.28;;;14.40;99.90;;;;;;5034820;28;20041;-67
2023/07/26 06:17:22;;;;;;;8.20;6.07;;;14.50;99.90;;;;;;5034653;28;20057;-67
2023/07/26 06:19:49;;;;;;;6.45;4.82;;;14.40;99.90;;;;;;5034127;28;20076;-65
2023/07/26 06:22:15;;;;;;;7.68;5.00;;;14.50;99.90;;;;;;5032085;28;20057;-65
2023/07/26 06:24:41;;;;;;;8.85;6.32;;;14.40;99.90;;;;;;5017569;28;20049;-65
2023/07/26 06:27:07;;;;;;;7.03;5.47;;;14.40;99.90;;;;;;5034670;28;20052;-64
2023/07/26 06:29:35;;;;;;;7.20;4.95;;;14.60;99.90;;;;;;5034036;28;20045;-65
2023/07/26 06:32:02;;;;;;;5.80;4.78;;;14.70;99.90;;;;;;5015859;28;20061;-64
2023/07/26 06:34:28;;;;;;;7.40;5.22;;;14.70;99.90;;;;;;5016629;28;20053;-66
2023/07/26 06:36:55;;;;;;;6.40;4.50;;;14.80;99.90;;;;;;5034155;28;20055;-65
2023/07/26 06:39:21;;;;;;;6.97;5.32;;;14.80;99.90;;;;;;5016852;28;20041;-64
2023/07/26 06:41:47;;;;;;;5.90;4.88;;;15.00;99.90;;;;;;5033372;28;20374;-64
2023/07/26 06:44:14;;;;;;;7.68;5.03;;;15.20;99.90;;;;;;5033655;28;20100;-63
2023/07/26 06:46:40;;;;;;;6.95;4.90;;;15.40;99.90;;;;;;5033817;28;20060;-64
2023/07/26 06:49:07;;;;;;;6.35;4.53;;;15.50;99.90;;;;;;5013670;28;20136;-65
2023/07/26 06:51:33;;;;;;;7.28;4.75;;;15.40;99.90;;;;;;5034034;28;20129;-64
2023/07/26 06:54:01;;;;;;;6.57;5.32;;;15.40;99.90;;;;;;5000549;28;20049;-63
2023/07/26 06:56:27;;;;;;;6.15;5.25;;;15.30;99.90;;;;;;5025642;28;20046;-64
2023/07/26 06:58:53;;;;;;;9.13;5.68;;;15.20;99.90;;;;;;5026441;28;20520;-64
2023/07/26 07:01:20;;;;;;;10.02;6.22;;;15.10;99.90;;;;;;5017888;28;20057;-64
2023/07/26 07:03:47;;;;;;;9.77;6.25;;;14.90;99.90;;;;;;4999935;28;20057;-66
2023/07/26 07:06:14;;;;;;;10.98;6.00;;;14.90;99.90;;;;;;4997931;28;20050;-66
2023/07/26 07:08:41;;;;;;;8.13;6.05;;;14.80;99.90;;;;;;5015254;28;20050;-64
2023/07/26 07:11:07;;;;;;;10.45;6.18;;;14.60;99.90;;;;;;5008739;28;20056;-64
2023/07/26 07:13:35;;;;;;;7.13;3.97;;;14.60;99.90;;;;;;5017405;28;20049;-64
2023/07/26 07:16:05;;;;;;;4.35;3.35;;;14.50;99.90;;;;;;5000634;28;20056;-64
2023/07/26 07:18:31;;;;;;;5.53;2.60;;;14.40;99.90;;;;;;5034442;28;20049;-64
2023/07/26 07:21:00;;;;;;;2.40;1.83;;;14.20;99.90;;;;;;5017414;28;20049;-64
2023/07/26 07:23:30;;;;;;;3.25;2.17;;;14.10;99.90;;;;;;5034178;28;20099;-65
2023/07/26 07:25:56;;;;;;;2.67;1.60;;;14.10;99.90;;;;;;5017016;28;20116;-64
2023/07/26 07:28:22;;;;;;;2.00;1.40;;;14.10;99.90;;;;;;5016936;28;20050;-64
2023/07/26 07:30:49;;;;;;;2.47;1.65;;;14.00;99.90;;;;;;5030776;28;20049;-65
2023/07/26 07:33:16;;;;;;;3.10;1.80;;;14.10;99.90;;;;;;5016267;28;20104;-65
2023/07/26 07:35:43;;;;;;;6.15;2.30;;;14.20;99.90;;;;;;4999445;28;20055;-66
2023/07/26 07:38:10;;;;;;;3.60;2.42;;;14.40;99.90;;;;;;5029907;28;20045;-64
2023/07/26 07:40:36;;;;;;;4.75;2.45;;;14.50;99.90;;;;;;5023871;28;20061;-65
2023/07/26 07:43:03;;;;;;;4.65;3.13;;;14.50;99.90;;;;;;5016180;28;20541;-65
2023/07/26 07:45:30;;;;;;;5.60;3.42;;;14.60;99.90;;;;;;5016618;28;20053;-65
2023/07/26 07:47:57;;;;;;;4.88;3.28;;;14.90;99.90;;;;;;5020955;28;20056;-65
2023/07/26 07:50:23;;;;;;;4.35;2.83;;;15.10;99.90;;;;;;5000333;28;20172;-65
2023/07/26 07:52:50;;;;;;;4.18;3.00;;;15.20;99.90;;;;;;5034367;28;20047;-65
2023/07/26 07:55:17;;;;;;;4.72;3.03;;;15.40;99.90;;;;;;5034012;28;20084;-64
2023/07/26 07:57:43;;;;;;;4.55;3.30;;;15.60;99.90;;;;;;5033797;28;20060;-65
2023/07/26 08:00:11;;;;;;;3.72;2.85;;;15.60;99.90;;;;;;5033827;28;20060;-65
2023/07/26 08:02:37;;;;;;;4.05;2.67;;;15.90;99.90;;;;;;5034587;28;20081;-66
2023/07/26 08:05:03;;;;;;;4.10;2.85;;;16.20;99.90;;;;;;5047516;28;20048;-64
2023/07/26 08:07:30;;;;;;;3.63;2.50;;;16.30;99.90;;;;;;5054128;28;20052;-64
2023/07/26 08:09:56;;;;;;;3.85;2.65;;;16.60;99.90;;;;;;5053680;28;20049;-64
2023/07/26 08:12:22;;;;;;;3.35;2.53;;;16.70;99.90;;;;;;5049657;28;20095;-65
2023/07/26 08:14:52;;;;;;;5.47;2.80;;;16.90;99.90;;;;;;5034375;28;20477;-65
2023/07/26 08:17:18;;;;;;;3.28;2.30;;;17.00;99.90;;;;;;5034234;28;20549;-64
2023/07/26 08:19:46;;;;;;;3.60;2.55;;;17.20;99.90;;;;;;5033503;28;20123;-65
2023/07/26 08:22:13;;;;;;;3.00;2.35;;;17.40;99.90;;;;;;5036166;28;20048;-65
2023/07/26 08:24:39;;;;;;;3.50;2.83;;;17.70;99.90;;;;;;5053996;28;20056;-65
2023/07/26 08:27:06;;;;;;;6.28;3.65;;;17.80;99.90;;;;;;5053775;28;20049;-64
2023/07/26 08:29:33;;;;;;;5.68;3.47;;;17.80;99.90;;;;;;5053308;28;20063;-65
2023/07/26 08:31:59;;;;;;;5.28;3.47;;;17.50;99.90;;;;;;5052859;28;20053;-65
2023/07/26 08:34:25;;;;;;;5.20;3.75;;;17.40;99.90;;;;;;5033881;28;20060;-64
2023/07/26 08:36:52;;;;;;;6.07;3.65;;;17.40;99.90;;;;;;5042824;28;20063;-66
2023/07/26 08:39:18;;;;;;;4.25;3.50;;;17.50;99.90;;;;;;5035302;28;20465;-65
2023/07/26 08:41:44;;;;;;;4.47;3.63;;;17.60;99.90;;;;;;5035789;28;20057;-65
2023/07/26 08:44:12;;;;;;;4.80;3.35;;;17.50;99.90;;;;;;5053281;28;20409;-65
2023/07/26 08:46:40;;;;;;;5.20;3.17;;;17.70;99.90;;;;;;5053012;28;20389;-64
2023/07/26 08:49:09;;;;;;;4.32;3.20;;;17.80;99.90;;;;;;5052948;28;20057;-64
2023/07/26 08:51:36;;;;;;;6.28;4.10;;;17.90;99.90;;;;;;5053087;28;20076;-64
2023/07/26 08:54:02;;;;;;;5.07;3.20;;;18.20;99.90;;;;;;5051930;28;20037;-65
2023/07/26 08:56:29;;;;;;;4.78;3.03;;;18.40;99.90;;;;;;5052676;28;20053;-64
2023/07/26 08:58:55;;;;;;;4.00;2.97;;;18.60;99.90;;;;;;5052678;28;20099;-65
2023/07/26 09:01:22;;;;;;;4.28;3.10;;;18.70;99.90;;;;;;5035722;28;20095;-66
2023/07/26 09:03:49;;;;;;;5.35;2.95;;;18.80;99.90;;;;;;5052970;28;20068;-64
2023/07/26 09:06:15;;;;;;;5.07;3.10;;;18.90;99.90;;;;;;5052839;28;20060;-65
2023/07/26 09:08:43;;;;;;;4.82;3.03;;;18.70;99.90;;;;;;5052569;28;20057;-65
2023/07/26 09:11:24;;;;;;;4.55;2.60;;;18.70;99.90;;;;;;5052610;28;20550;-64
2023/07/26 09:13:59;;;;;;;3.88;2.55;;;18.70;99.90;;;;;;5052921;28;20061;-65
2023/07/26 09:16:31;;;;;;;7.63;3.03;;;18.50;99.90;;;;;;5052880;28;20049;-64
2023/07/26 09:19:05;;;;;;;4.82;2.78;;;18.30;99.90;;;;;;5051769;28;20041;-63
2023/07/26 09:21:36;;;;;;;3.97;2.67;;;18.30;99.90;;;;;;5035313;28;20052;-66
2023/07/26 09:24:03;;;;;;;;;;;18.10;99.90;;;;;;5052722;28;20466;-64
2023/07/26 09:26:36;;;;;;;6.30;3.50;;;18.10;99.90;;;;;;5034882;28;19925;-64
2023/07/26 09:29:11;;;;;;;4.35;3.03;;;18.20;99.90;;;;;;5052314;28;20059;-65
2023/07/26 09:31:44;;;;;;;4.28;2.95;;;18.30;99.90;;;;;;5035055;28;20540;-64
2023/07/26 09:34:13;;;;;;;6.05;3.90;;;18.30;99.90;;;;;;5052108;28;20052;-64
2023/07/26 09:36:52;;;;;;;8.05;4.47;;;18.40;99.90;;;;;;5032107;28;20140;-65
2023/07/26 09:39:21;;;;;;;5.70;3.30;;;18.50;99.90;;;;;;5016473;28;20049;-66
2023/07/26 09:41:49;;;;;;;5.78;3.33;;;18.70;99.90;;;;;;5035071;28;20115;-65
2023/07/26 09:44:16;;;;;;;7.30;3.42;;;18.80;99.90;;;;;;5052250;28;20099;-65
2023/07/26 09:46:51;;;;;;;4.78;3.33;;;18.80;99.90;;;;;;5035041;28;20386;-66
2023/07/26 09:49:22;;;;;;;5.80;3.97;;;18.90;99.90;;;;;;5034419;28;20053;-65
2023/07/26 09:51:54;;;;;;;5.20;3.20;;;19.10;99.90;;;;;;5018303;28;20057;-64
2023/07/26 09:54:21;;;;;;;10.80;4.47;;;19.30;99.90;;;;;;5034373;28;20052;-64
2023/07/26 09:56:48;;;;;;;9.30;3.75;;;19.40;99.90;;;;;;5035019;28;20049;-65
2023/07/26 09:59:15;;;;;;;4.43;3.05;;;19.50;99.90;;;;;;5034038;28;20060;-65
2023/07/26 10:01:43;;;;;;;5.40;3.17;;;19.50;99.90;;;;;;5052346;28;20103;-66
2023/07/26 10:04:22;;;;;;;5.47;3.58;;;19.60;99.90;;;;;;5034430;28;20048;-65
2023/07/26 10:06:50;;;;;;;6.93;4.18;;;19.40;99.90;;;;;;5018632;28;20053;-64
2023/07/26 10:09:17;;;;;;;3.83;3.13;;;19.60;99.90;;;;;;5052098;28;20060;-65
2023/07/26 10:11:47;;;;;;;6.25;3.17;;;19.30;99.90;;;;;;5051970;28;20413;-64
2023/07/26 10:14:15;;;;;;;7.20;3.70;;;19.20;99.90;;;;;;5052005;28;20044;-64
2023/07/26 10:16:43;;;;;;;7.68;4.00;;;19.30;99.90;;;;;;5034586;28;20487;-63
2023/07/26 10:19:11;;;;;;;5.30;3.35;;;19.50;99.90;;;;;;5051942;28;20053;-64
2023/07/26 10:21:40;;;;;;;6.85;3.00;;;19.50;99.90;;;;;;5052030;28;20052;-63
2023/07/26 10:24:09;;;;;;;6.28;3.33;;;19.40;99.90;;;;;;5034130;28;20103;-64
2023/07/26 10:26:37;;;;;;;4.80;2.72;;;19.40;99.90;;;;;;5034446;28;20258;-64
2023/07/26 10:29:04;;;;;;;5.28;3.17;;;19.30;99.90;;;;;;5034030;28;20064;-63
2023/07/26 10:31:32;;;;;;;7.15;2.53;;;19.50;99.90;;;;;;5051986;28;20048;-63
2023/07/26 10:33:58;;;;;;;6.55;2.72;;;19.70;99.90;;;;;;5034076;28;20118;-64
2023/07/26 10:36:33;;;;;;;3.85;2.50;;;19.90;99.90;;;;;;5033865;28;20057;-64
2023/07/26 10:39:05;;;;;;;4.03;2.50;;;20.10;99.90;;;;;;5017405;28;20054;-64
2023/07/26 10:41:34;;;;;;;5.13;3.15;;;20.30;99.90;;;;;;5034435;28;20103;-63
2023/07/26 10:44:04;;;;;;;7.03;2.78;;;20.20;99.90;;;;;;5034022;28;20119;-64
2023/07/26 10:46:51;;;;;;;5.10;3.08;;;20.10;99.90;;;;;;5018302;28;20082;-63
2023/07/26 10:49:36;;;;;;;5.15;2.70;;;19.80;99.90;;;;;;5023911;28;20184;-64
2023/07/26 10:52:05;;;;;;;5.25;2.75;;;19.30;99.90;;;;;;5037521;28;20049;-64
2023/07/26 10:54:32;;;;;;;7.20;3.60;;;18.80;99.90;;;;;;5037373;28;20123;-64
2023/07/26 10:57:28;;;;;;;7.00;3.30;;;18.30;99.90;;;;;;5055304;28;20064;-63
2023/07/26 11:00:17;;;;;;;6.72;3.35;;;17.60;99.90;;;;;;5030647;28;20341;-64
2023/07/26 11:02:45;;;;;;;6.40;3.55;;;17.10;99.90;;;;;;5037680;28;20056;-66
2023/07/26 11:05:15;;;;;;;6.68;3.40;;;16.90;99.90;;;;;;5054841;28;20579;-64
2023/07/26 11:08:00;;;;;;;6.90;3.67;;;16.80;99.90;;;;;;5054778;28;20052;-64
2023/07/26 11:10:50;;;;;;;6.25;3.95;;;16.80;99.90;;;;;;5037098;28;20049;-64
2023/07/26 11:13:26;;;;;;;6.93;3.63;;;16.70;99.90;;;;;;5054479;28;20053;-65
2023/07/26 11:15:55;;;;;;;6.18;3.88;;;16.90;99.90;;;;;;5037218;28;20049;-65
2023/07/26 11:18:22;;;;;;;5.97;3.92;;;17.30;99.90;;;;;;5053317;28;20041;-67
2023/07/26 11:20:50;;;;;;;6.68;3.47;;;17.40;99.90;;;;;;5054642;28;20133;-65
2023/07/26 11:23:17;;;;;;;5.65;3.42;;;17.50;99.90;;;;;;5036759;28;20045;-65
2023/07/26 11:25:46;;;;;;;6.82;3.90;;;17.60;99.90;;;;;;5036840;28;20049;-65
2023/07/26 11:28:12;;;;;;;7.03;4.10;;;17.70;99.90;;;;;;5054327;28;20516;-65
2023/07/26 11:30:41;;;;;;;4.68;3.55;;;17.70;99.90;;;;;;5036639;28;20496;-64
2023/07/26 11:33:09;;;;;;;6.97;4.53;;;17.90;99.90;;;;;;5054444;28;20091;-65
2023/07/26 11:35:42;;;;;;;6.45;4.10;;;18.00;99.90;;;;;;5054339;28;20045;-65
2023/07/26 11:38:14;;;;;;;6.97;3.88;;;18.00;99.90;;;;;;5036155;28;20063;-65
2023/07/26 11:40:42;;;;;;;5.05;3.38;;;17.90;99.90;;;;;;5036513;28;20454;-64
2023/07/26 11:43:10;;;;;;;4.38;2.90;;;17.90;99.90;;;;;;5054296;28;20123;-65
2023/07/26 11:45:38;;;;;;;4.95;2.80;;;17.80;99.90;;;;;;5054269;28;20045;-65
2023/07/26 11:48:09;;;;;;;8.93;4.00;;;17.90;99.90;;;;;;5054264;28;20049;-65
2023/07/26 11:50:36;;;;;;;6.90;3.13;;;18.00;99.90;;;;;;5035945;28;20048;-66
2023/07/26 11:53:09;;;;;;;4.55;2.83;;;18.00;99.90;;;;;;5036219;28;20048;-64
2023/07/26 11:55:41;;;;;;;5.68;3.00;;;18.10;99.90;;;;;;5053874;28;20452;-65
2023/07/26 11:58:09;;;;;;;4.20;2.92;;;18.00;99.90;;;;;;5053438;28;20351;-65
2023/07/26 12:00:37;;;;;;;6.70;3.45;;;18.10;99.90;;;;;;5053865;28;20131;-66
2023/07/26 12:03:05;;;;;;;6.38;3.67;;;18.20;99.90;;;;;;5053987;28;20045;-64
2023/07/26 12:05:33;;;;;;;8.23;3.90;;;18.30;99.90;;;;;;5035814;28;20064;-64
2023/07/26 12:08:03;;;;;;;7.20;3.72;;;18.50;99.90;;;;;;5036050;28;20067;-65
2023/07/26 12:10:38;;;;;;;5.90;3.10;;;18.60;99.90;;;;;;5036224;28;20385;-64
2023/07/26 12:13:09;;;;;;;8.10;3.47;;;18.70;99.90;;;;;;5053224;28;20095;-67
2023/07/26 12:15:57;;;;;;;6.82;3.15;;;18.80;99.90;;;;;;5054118;28;20107;-65
2023/07/26 12:18:25;;;;;;;5.85;3.20;;;19.00;99.90;;;;;;5053237;28;20472;-65
2023/07/26 12:20:57;;;;;;;5.30;3.10;;;19.00;99.90;;;;;;5053764;28;20052;-66
2023/07/26 12:23:25;;;;;;;5.22;3.13;;;18.80;99.90;;;;;;5053495;28;20048;-65
2023/07/26 12:25:54;;;;;;;4.70;2.80;;;18.50;99.90;;;;;;5036128;28;20131;-65
2023/07/26 12:28:20;;;;;;;7.55;3.08;;;18.40;99.90;;;;;;5053185;28;20071;-64
2023/07/26 12:30:58;;;;;;;4.82;2.58;;;18.40;99.90;;;;;;5053806;28;20057;-66
2023/07/26 12:33:25;;;;;;;7.65;3.35;;;18.30;99.90;;;;;;5052811;28;20044;-65
2023/07/26 12:35:55;;;;;;;5.30;2.78;;;18.40;99.90;;;;;;5035058;28;20063;-65
2023/07/26 12:38:23;;;;;;;7.28;3.50;;;18.60;99.90;;;;;;5034612;28;20044;-64
2023/07/26 12:40:50;;;;;;;6.45;3.35;;;18.70;99.90;;;;;;5035070;28;20377;-65
2023/07/26 12:43:28;;;;;;;5.93;3.50;;;18.60;99.90;;;;;;5053553;28;20449;-64
2023/07/26 12:45:55;;;;;;;;;;;18.80;99.90;;;;;;5054071;28;20112;-66
2023/07/26 12:48:22;;;;;;;5.15;3.28;;;19.00;99.90;;;;;;5053003;28;20276;-66
2023/07/26 12:50:50;;;;;;;5.95;3.30;;;19.10;99.90;;;;;;5053328;28;20049;-65
2023/07/26 12:53:26;;;;;;;6.22;3.55;;;19.40;99.90;;;;;;5053063;28;20053;-67